createdAt,value
2022-11-15T00:00:34.666Z,2.0
2022-11-15T00:01:34.473Z,2.1
2022-11-15T00:02:34.265Z,2.9
2022-11-15T00:03:34.300Z,3.1
2022-11-15T00:04:34.731Z,2.9
2022-11-15T00:05:35.105Z,2.9
2022-11-15T00:06:34.537Z,3.3
2022-11-15T00:07:54.680Z,3.7
2022-11-15T00:08:34.092Z,2.6
2022-11-15T00:09:34.623Z,3.0
2022-11-15T00:10:34.436Z,3.5
2022-11-15T00:11:34.200Z,3.2
2022-11-15T00:12:34.063Z,3.9
2022-11-15T00:13:35.167Z,3.4
2022-11-15T00:14:34.553Z,3.1
2022-11-15T00:15:35.087Z,3.6
2022-11-15T00:16:34.189Z,3.7
2022-11-15T00:17:33.991Z,3.6
2022-11-15T00:18:34.663Z,3.4
2022-11-15T00:19:34.519Z,2.9
2022-11-15T00:20:34.322Z,3.9
2022-11-15T00:21:34.085Z,3.7
2022-11-15T00:22:33.901Z,3.8
2022-11-15T00:23:34.784Z,4.1
2022-11-15T00:24:34.499Z,3.5
2022-11-15T00:25:34.797Z,3.5
2022-11-15T00:26:33.985Z,3.2
2022-11-15T00:27:34.669Z,3.6
2022-11-15T00:28:34.506Z,3.2
2022-11-15T00:29:34.666Z,3.5
2022-11-15T00:30:34.554Z,3.1
2022-11-15T00:31:34.409Z,3.5
2022-11-15T00:32:34.166Z,3.4
2022-11-15T00:33:34.434Z,3.6
2022-11-15T00:34:34.732Z,3.1
2022-11-15T00:35:34.731Z,3.2
2022-11-15T00:36:34.277Z,3.3
2022-11-15T00:37:34.117Z,3.0
2022-11-15T00:38:34.248Z,3.4
2022-11-15T00:39:34.651Z,3.3
2022-11-15T00:40:34.532Z,3.3
2022-11-15T00:41:34.252Z,3.5
2022-11-15T00:42:34.192Z,3.4
2022-11-15T00:43:35.111Z,3.6
2022-11-15T00:44:34.516Z,3.7
2022-11-15T00:45:34.343Z,3.1
2022-11-15T00:46:34.166Z,3.2
2022-11-15T00:47:33.955Z,3.6
2022-11-15T00:48:34.680Z,3.1
2022-11-15T00:49:34.455Z,3.6
2022-11-15T00:50:34.282Z,2.9
2022-11-15T00:51:34.289Z,4.2
2022-11-15T00:52:33.930Z,4.0
2022-11-15T00:53:35.075Z,3.7
2022-11-15T00:54:34.396Z,4.5
2022-11-15T00:55:34.278Z,3.4
2022-11-15T00:56:34.051Z,4.1
2022-11-15T00:57:34.972Z,3.4
2022-11-15T00:58:34.583Z,3.4
2022-11-15T00:59:34.354Z,3.5
2022-11-15T01:00:34.432Z,2.6
2022-11-15T01:01:33.973Z,3.9
2022-11-15T01:02:34.689Z,3.3
2022-11-15T01:03:34.777Z,3.5
2022-11-15T01:04:34.292Z,3.7
2022-11-15T01:05:34.107Z,3.5
2022-11-15T01:06:33.892Z,3.6
2022-11-15T01:07:34.721Z,3.8
2022-11-15T01:08:34.487Z,3.1
2022-11-15T01:09:34.260Z,3.2
2022-11-15T01:10:34.127Z,2.9
2022-11-15T01:11:34.741Z,2.5
2022-11-15T01:12:35.190Z,2.9
2022-11-15T01:13:34.840Z,3.1
2022-11-15T01:14:34.181Z,3.5
2022-11-15T01:15:33.951Z,3.9
2022-11-15T01:16:34.722Z,3.5
2022-11-15T01:17:34.623Z,3.2
2022-11-15T01:18:34.281Z,3.7
2022-11-15T01:19:34.100Z,3.0
2022-11-15T01:20:33.890Z,3.9
2022-11-15T01:21:34.572Z,3.1
2022-11-15T01:22:34.469Z,3.6
2022-11-15T01:23:34.474Z,3.3
2022-11-15T01:24:34.005Z,3.0
2022-11-15T01:25:34.755Z,3.2
2022-11-15T01:26:34.531Z,3.3
2022-11-15T01:27:34.362Z,3.0
2022-11-15T01:28:35.459Z,3.3
2022-11-15T01:29:34.070Z,3.7
2022-11-15T01:30:35.742Z,3.1
2022-11-15T01:31:35.239Z,3.6
2022-11-15T01:32:34.363Z,3.1
2022-11-15T01:33:34.825Z,3.4
2022-11-15T01:34:34.775Z,3.3
2022-11-15T01:35:38.363Z,2.9
2022-11-15T01:36:34.393Z,3.9
2022-11-15T01:37:34.214Z,2.8
2022-11-15T01:38:34.229Z,3.0
2022-11-15T01:39:34.662Z,2.4
2022-11-15T01:40:34.517Z,3.2
2022-11-15T01:41:34.290Z,3.7
2022-11-15T01:42:34.201Z,3.8
2022-11-15T01:43:35.124Z,3.2
2022-11-15T01:44:39.188Z,3.8
2022-11-15T01:45:34.434Z,3.2
2022-11-15T01:46:35.290Z,3.2
2022-11-15T01:47:36.894Z,3.2
2022-11-15T01:48:34.709Z,2.5
2022-11-15T01:49:36.386Z,2.8
2022-11-15T01:50:34.437Z,2.8
2022-11-15T01:51:34.118Z,3.1
2022-11-15T01:52:34.717Z,3.4
2022-11-15T01:53:35.973Z,2.6
2022-11-15T01:54:34.545Z,2.8
2022-11-15T01:55:34.432Z,2.6
2022-11-15T01:56:37.893Z,3.2
2022-11-15T01:57:34.193Z,3.4
2022-11-15T01:58:35.403Z,2.8
2022-11-15T01:59:34.866Z,3.1
2022-11-15T02:00:34.578Z,3.2
2022-11-15T02:01:34.384Z,3.5
2022-11-15T02:02:35.783Z,3.0
2022-11-15T02:03:39.429Z,3.6
2022-11-15T02:04:37.920Z,3.0
2022-11-15T02:05:35.775Z,3.0
2022-11-15T02:06:34.832Z,3.3
2022-11-15T02:07:35.451Z,2.6
2022-11-15T02:08:34.475Z,2.7
2022-11-15T02:09:35.932Z,2.9
2022-11-15T02:10:34.058Z,3.1
2022-11-15T02:11:34.395Z,3.4
2022-11-15T02:12:34.177Z,3.2
2022-11-15T02:13:34.341Z,3.8
2022-11-15T02:14:35.334Z,3.1
2022-11-15T02:15:39.307Z,2.3
2022-11-15T02:16:39.121Z,2.0
2022-11-15T02:17:38.915Z,3.2
2022-11-15T02:18:39.843Z,3.1
2022-11-15T02:19:45.209Z,3.0
2022-11-15T02:20:51.203Z,2.9
2022-11-15T02:21:39.034Z,3.2
2022-11-15T02:22:38.818Z,2.6
2022-11-15T02:23:39.678Z,3.1
2022-11-15T02:24:54.191Z,2.9
2022-11-15T02:25:52.120Z,3.2
2022-11-15T02:26:41.695Z,3.1
2022-11-15T02:27:47.722Z,3.2
2022-11-15T02:28:52.663Z,2.9
2022-11-15T02:29:42.227Z,3.4
2022-11-15T02:30:41.701Z,2.6
2022-11-15T02:31:38.904Z,3.1
2022-11-15T02:32:54.672Z,3.2
2022-11-15T02:33:39.459Z,3.4
2022-11-15T02:34:52.638Z,2.7
2022-11-15T02:35:47.546Z,3.4
2022-11-15T02:36:47.695Z,3.0
2022-11-15T02:37:39.438Z,2.7
2022-11-15T02:38:39.374Z,2.8
2022-11-15T02:39:47.687Z,2.7
2022-11-15T02:40:50.693Z,2.4
2022-11-15T02:41:43.356Z,2.4
2022-11-15T02:42:36.900Z,3.2
2022-11-15T02:43:40.853Z,2.9
2022-11-15T02:44:38.468Z,2.7
2022-11-15T02:45:37.067Z,2.4
2022-11-15T02:46:41.993Z,2.9
2022-11-15T02:47:37.897Z,2.9
2022-11-15T02:48:34.980Z,2.2
2022-11-15T02:49:34.266Z,2.9
2022-11-15T02:50:34.283Z,2.7
2022-11-15T02:51:34.612Z,3.1
2022-11-15T02:52:34.522Z,2.8
2022-11-15T02:53:34.592Z,2.9
2022-11-15T02:54:34.837Z,3.5
2022-11-15T02:55:35.316Z,3.4
2022-11-15T02:56:34.228Z,3.4
2022-11-15T02:57:44.712Z,2.5
2022-11-15T02:58:52.652Z,2.6
2022-11-15T02:59:43.917Z,2.4
2022-11-15T03:00:39.143Z,2.8
2022-11-15T03:01:38.979Z,2.7
2022-11-15T03:02:52.635Z,2.3
2022-11-15T03:03:54.202Z,2.5
2022-11-15T03:04:46.116Z,3.0
2022-11-15T03:05:53.685Z,2.4
2022-11-15T03:06:47.505Z,3.0
2022-11-15T03:07:39.523Z,2.9
2022-11-15T03:08:42.205Z,3.2
2022-11-15T03:09:35.157Z,2.9
2022-11-15T03:10:46.526Z,3.1
2022-11-15T03:11:37.262Z,3.0
2022-11-15T03:12:39.487Z,3.3
2022-11-15T03:13:44.028Z,2.7
2022-11-15T03:14:37.694Z,2.9
2022-11-15T03:15:41.437Z,2.7
2022-11-15T03:16:36.614Z,2.6
2022-11-15T03:17:36.051Z,2.7
2022-11-15T03:18:35.715Z,2.8
2022-11-15T03:19:57.228Z,3.4
2022-11-15T03:20:35.073Z,2.7
2022-11-15T03:21:34.850Z,2.7
2022-11-15T03:22:36.467Z,3.0
2022-11-15T03:23:36.529Z,3.3
2022-11-15T03:24:36.706Z,3.0
2022-11-15T03:25:37.414Z,2.7
2022-11-15T03:26:36.118Z,2.5
2022-11-15T03:27:37.663Z,2.8
2022-11-15T03:28:37.109Z,2.0
2022-11-15T03:29:36.673Z,3.0
2022-11-15T03:30:35.409Z,2.6
2022-11-15T03:31:36.353Z,2.6
2022-11-15T03:32:37.687Z,2.7
2022-11-15T03:33:34.839Z,2.3
2022-11-15T03:34:40.027Z,3.0
2022-11-15T03:35:37.181Z,3.1
2022-11-15T03:36:34.610Z,2.9
2022-11-15T03:37:54.269Z,2.7
2022-11-15T03:38:34.855Z,2.4
2022-11-15T03:39:34.306Z,2.6
2022-11-15T03:40:38.828Z,2.7
2022-11-15T03:41:42.335Z,2.3
2022-11-15T03:42:54.201Z,2.6
2022-11-15T03:43:44.278Z,2.1
2022-11-15T03:44:40.526Z,3.1
2022-11-15T03:45:41.178Z,2.5
2022-11-15T03:46:40.211Z,2.9
2022-11-15T03:47:40.374Z,2.4
2022-11-15T03:48:37.216Z,2.0
2022-11-15T03:49:35.015Z,2.3
2022-11-15T03:50:34.478Z,2.6
2022-11-15T03:51:34.885Z,2.8
2022-11-15T03:52:34.693Z,2.1
2022-11-15T03:53:34.449Z,2.5
2022-11-15T03:54:34.129Z,2.2
2022-11-15T03:55:34.354Z,2.8
2022-11-15T03:56:34.547Z,2.6
2022-11-15T03:57:34.422Z,3.0
2022-11-15T03:58:34.231Z,2.2
2022-11-15T03:59:33.968Z,2.3
2022-11-15T04:00:34.759Z,3.2
2022-11-15T04:01:34.599Z,2.9
2022-11-15T04:02:34.328Z,2.7
2022-11-15T04:03:34.673Z,2.6
2022-11-15T04:04:34.212Z,2.2
2022-11-15T04:05:34.670Z,2.9
2022-11-15T04:06:34.418Z,3.0
2022-11-15T04:07:34.468Z,2.6
2022-11-15T04:08:34.032Z,2.6
2022-11-15T04:09:34.790Z,2.5
2022-11-15T04:10:34.563Z,2.9
2022-11-15T04:11:34.352Z,3.2
2022-11-15T04:12:35.473Z,2.3
2022-11-15T04:13:34.396Z,2.8
2022-11-15T04:14:34.666Z,2.0
2022-11-15T04:15:34.953Z,2.8
2022-11-15T04:16:35.771Z,2.8
2022-11-15T04:17:38.941Z,2.3
2022-11-15T04:18:33.908Z,2.4
2022-11-15T04:19:34.600Z,2.6
2022-11-15T04:20:34.451Z,2.7
2022-11-15T04:21:34.188Z,2.3
2022-11-15T04:22:34.045Z,2.5
2022-11-15T04:23:35.036Z,1.9
2022-11-15T04:24:34.468Z,2.3
2022-11-15T04:25:34.325Z,2.5
2022-11-15T04:26:34.149Z,1.6
2022-11-15T04:27:33.903Z,2.2
2022-11-15T04:28:34.616Z,2.2
2022-11-15T04:29:34.441Z,2.6
2022-11-15T04:30:38.065Z,2.6
2022-11-15T04:31:34.073Z,2.0
2022-11-15T04:32:33.843Z,2.4
2022-11-15T04:33:34.942Z,2.5
2022-11-15T04:34:34.315Z,2.3
2022-11-15T04:35:34.114Z,2.8
2022-11-15T04:36:33.970Z,2.5
2022-11-15T04:37:34.665Z,2.4
2022-11-15T04:38:34.755Z,2.0
2022-11-15T04:39:34.304Z,3.1
2022-11-15T04:40:34.419Z,2.7
2022-11-15T04:41:34.485Z,3.4
2022-11-15T04:42:34.134Z,2.7
2022-11-15T04:43:34.176Z,2.0
2022-11-15T04:44:34.875Z,2.8
2022-11-15T04:45:33.971Z,2.0
2022-11-15T04:46:34.655Z,2.6
2022-11-15T04:47:34.504Z,2.8
2022-11-15T04:48:34.229Z,2.1
2022-11-15T04:49:34.043Z,2.2
2022-11-15T04:50:33.867Z,2.2
2022-11-15T04:51:34.607Z,2.7
2022-11-15T04:52:34.439Z,2.1
2022-11-15T04:53:34.472Z,2.8
2022-11-15T04:54:34.009Z,2.8
2022-11-15T04:55:34.655Z,2.4
2022-11-15T04:56:34.475Z,2.3
2022-11-15T04:57:34.345Z,2.1
2022-11-15T04:58:34.127Z,2.6
2022-11-15T04:59:33.870Z,2.9
2022-11-15T05:00:35.287Z,1.5
2022-11-15T05:01:34.513Z,2.5
2022-11-15T05:02:34.282Z,2.6
2022-11-15T05:03:34.420Z,2.2
2022-11-15T05:04:34.736Z,2.7
2022-11-15T05:05:34.516Z,1.9
2022-11-15T05:06:34.325Z,2.4
2022-11-15T05:07:34.183Z,2.3
2022-11-15T05:08:33.973Z,2.6
2022-11-15T05:09:34.643Z,2.3
2022-11-15T05:10:34.462Z,2.8
2022-11-15T05:11:34.261Z,2.2
2022-11-15T05:12:34.115Z,2.5
2022-11-15T05:13:34.297Z,2.4
2022-11-15T05:14:34.607Z,1.9
2022-11-15T05:15:34.368Z,2.6
2022-11-15T05:16:34.158Z,1.8
2022-11-15T05:17:33.963Z,2.5
2022-11-15T05:18:34.847Z,1.9
2022-11-15T05:19:34.482Z,1.8
2022-11-15T05:20:34.326Z,2.6
2022-11-15T05:21:34.504Z,2.0
2022-11-15T05:22:33.909Z,2.2
2022-11-15T05:23:34.855Z,1.8
2022-11-15T05:24:34.420Z,2.2
2022-11-15T05:25:35.772Z,2.2
2022-11-15T05:26:33.963Z,2.2
2022-11-15T05:27:34.837Z,2.1
2022-11-15T05:28:34.594Z,2.8
2022-11-15T05:29:34.406Z,2.4
2022-11-15T05:30:34.206Z,2.2
2022-11-15T05:31:33.957Z,2.3
2022-11-15T05:32:34.642Z,2.3
2022-11-15T05:33:35.371Z,2.4
2022-11-15T05:34:34.342Z,1.6
2022-11-15T05:35:41.523Z,1.8
2022-11-15T05:36:38.787Z,1.8
2022-11-15T05:37:34.591Z,2.6
2022-11-15T05:38:34.469Z,1.7
2022-11-15T05:39:34.238Z,2.0
2022-11-15T05:40:34.480Z,2.2
2022-11-15T05:41:39.219Z,2.6
2022-11-15T05:42:34.525Z,1.9
2022-11-15T05:43:35.390Z,2.7
2022-11-15T05:44:36.205Z,2.8
2022-11-15T05:45:34.641Z,2.0
2022-11-15T05:46:35.300Z,2.1
2022-11-15T05:47:35.875Z,2.4
2022-11-15T05:48:34.973Z,2.9
2022-11-15T05:49:35.816Z,2.2
2022-11-15T05:50:34.240Z,2.2
2022-11-15T05:51:34.704Z,1.6
2022-11-15T05:52:35.166Z,1.4
2022-11-15T05:53:35.064Z,1.7
2022-11-15T05:54:34.470Z,2.8
2022-11-15T05:55:34.757Z,1.7
2022-11-15T05:56:34.524Z,2.0
2022-11-15T05:57:34.379Z,1.9
2022-11-15T05:58:34.311Z,2.4
2022-11-15T05:59:34.574Z,2.2
2022-11-15T06:00:34.764Z,1.5
2022-11-15T06:01:34.679Z,2.1
2022-11-15T06:02:34.393Z,1.6
2022-11-15T06:03:34.299Z,2.1
2022-11-15T06:04:34.889Z,2.1
2022-11-15T06:05:34.581Z,1.9
2022-11-15T06:06:34.393Z,2.1
2022-11-15T06:07:34.378Z,1.8
2022-11-15T06:08:33.987Z,2.0
2022-11-15T06:09:34.694Z,1.7
2022-11-15T06:10:34.476Z,1.9
2022-11-15T06:11:34.326Z,2.5
2022-11-15T06:12:34.097Z,1.9
2022-11-15T06:13:34.470Z,2.1
2022-11-15T06:14:34.704Z,2.2
2022-11-15T06:15:34.448Z,1.8
2022-11-15T06:16:34.361Z,2.3
2022-11-15T06:17:34.084Z,1.3
2022-11-15T06:18:34.199Z,1.6
2022-11-15T06:19:34.492Z,1.7
2022-11-15T06:20:34.366Z,1.8
2022-11-15T06:21:34.177Z,2.1
2022-11-15T06:22:33.952Z,1.5
2022-11-15T06:23:34.919Z,1.6
2022-11-15T06:24:34.521Z,1.7
2022-11-15T06:25:34.347Z,1.7
2022-11-15T06:26:34.195Z,1.5
2022-11-15T06:27:33.937Z,2.0
2022-11-15T06:28:34.599Z,2.0
2022-11-15T06:29:34.450Z,2.1
2022-11-15T06:30:34.335Z,1.7
2022-11-15T06:31:34.736Z,1.8
2022-11-15T06:32:33.846Z,1.4
2022-11-15T06:33:34.917Z,1.8
2022-11-15T06:34:34.437Z,1.3
2022-11-15T06:35:34.862Z,1.6
2022-11-15T06:36:37.240Z,1.7
2022-11-15T06:37:33.839Z,1.7
2022-11-15T06:38:34.775Z,2.4
2022-11-15T06:39:34.348Z,2.0
2022-11-15T06:40:35.080Z,1.8
2022-11-15T06:41:34.315Z,1.3
2022-11-15T06:42:34.774Z,2.0
2022-11-15T06:43:34.941Z,1.9
2022-11-15T06:44:34.309Z,2.1
2022-11-15T06:45:34.120Z,2.2
2022-11-15T06:46:33.974Z,2.7
2022-11-15T06:47:34.644Z,1.6
2022-11-15T06:48:34.517Z,1.9
2022-11-15T06:49:34.213Z,1.9
2022-11-15T06:50:34.035Z,2.1
2022-11-15T06:51:34.778Z,1.9
2022-11-15T06:52:34.582Z,2.0
2022-11-15T06:53:35.126Z,1.6
2022-11-15T06:54:34.231Z,2.1
2022-11-15T06:55:34.032Z,1.7
2022-11-15T06:56:34.694Z,1.8
2022-11-15T06:57:34.649Z,1.9
2022-11-15T06:58:34.598Z,1.8
2022-11-15T06:59:37.786Z,1.4
2022-11-15T07:00:33.998Z,1.7
2022-11-15T07:01:34.726Z,1.7
2022-11-15T07:02:34.457Z,1.4
2022-11-15T07:03:35.080Z,1.4
2022-11-15T07:04:34.268Z,1.8
2022-11-15T07:05:33.941Z,1.9
2022-11-15T07:06:34.565Z,1.8
2022-11-15T07:07:34.526Z,0.9
2022-11-15T07:08:34.674Z,1.6
2022-11-15T07:09:34.041Z,1.9
2022-11-15T07:10:34.755Z,1.7
2022-11-15T07:11:34.559Z,1.8
2022-11-15T07:12:34.380Z,1.5
2022-11-15T07:13:35.446Z,2.0
2022-11-15T07:14:34.127Z,2.6
2022-11-15T07:15:34.659Z,2.3
2022-11-15T07:16:34.468Z,2.2
2022-11-15T07:17:34.290Z,2.3
2022-11-15T07:18:37.637Z,1.6
2022-11-15T07:19:33.960Z,2.1
2022-11-15T07:20:34.669Z,2.0
2022-11-15T07:21:34.443Z,2.4
2022-11-15T07:22:34.285Z,2.5
2022-11-15T07:23:35.861Z,2.3
2022-11-15T07:24:33.971Z,2.5
2022-11-15T07:25:34.805Z,2.1
2022-11-15T07:26:34.386Z,2.5
2022-11-15T07:27:34.151Z,2.0
2022-11-15T07:28:34.026Z,2.1
2022-11-15T07:29:34.755Z,2.3
2022-11-15T07:30:34.519Z,2.1
2022-11-15T07:31:34.318Z,2.6
2022-11-15T07:32:34.426Z,1.8
2022-11-15T07:33:34.939Z,2.3
2022-11-15T07:34:34.573Z,2.4
2022-11-15T07:35:34.455Z,2.0
2022-11-15T07:36:34.249Z,1.7
2022-11-15T07:37:34.027Z,2.2
2022-11-15T07:38:40.988Z,2.8
2022-11-15T07:39:34.595Z,1.8
2022-11-15T07:40:34.435Z,1.8
2022-11-15T07:41:34.241Z,1.5
2022-11-15T07:42:34.056Z,1.9
2022-11-15T07:43:34.946Z,1.3
2022-11-15T07:44:34.489Z,2.0
2022-11-15T07:45:34.351Z,2.8
2022-11-15T07:46:34.106Z,2.0
2022-11-15T07:47:34.033Z,2.0
2022-11-15T07:48:43.938Z,1.1
2022-11-15T07:49:34.436Z,1.2
2022-11-15T07:50:34.340Z,2.3
2022-11-15T07:51:34.137Z,1.4
2022-11-15T07:52:33.911Z,1.3
2022-11-15T07:53:35.007Z,2.1
2022-11-15T07:54:33.966Z,1.8
2022-11-15T07:55:34.677Z,1.9
2022-11-15T07:56:34.385Z,1.9
2022-11-15T07:57:34.239Z,1.9
2022-11-15T07:58:34.066Z,2.1
2022-11-15T07:59:34.730Z,1.8
2022-11-15T08:00:35.177Z,2.5
2022-11-15T08:01:34.461Z,1.6
2022-11-15T08:02:34.337Z,1.9
2022-11-15T08:03:34.897Z,1.4
2022-11-15T08:04:34.627Z,2.0
2022-11-15T08:05:35.160Z,1.9
2022-11-15T08:06:34.341Z,2.3
2022-11-15T08:07:34.103Z,2.0
2022-11-15T08:08:33.895Z,2.0
2022-11-15T08:09:34.594Z,2.0
2022-11-15T08:10:40.286Z,2.2
2022-11-15T08:11:34.252Z,2.5
2022-11-15T08:12:34.128Z,1.7
2022-11-15T08:13:35.111Z,1.9
2022-11-15T08:14:35.047Z,2.8
2022-11-15T08:15:34.812Z,1.7
2022-11-15T08:16:34.153Z,1.6
2022-11-15T08:17:33.990Z,2.0
2022-11-15T08:18:34.650Z,1.8
2022-11-15T08:19:34.476Z,2.1
2022-11-15T08:20:34.630Z,2.0
2022-11-15T08:21:34.287Z,2.4
2022-11-15T08:22:33.932Z,1.4
2022-11-15T08:23:34.905Z,1.9
2022-11-15T08:24:34.334Z,2.0
2022-11-15T08:25:34.793Z,2.0
2022-11-15T08:26:33.996Z,2.3
2022-11-15T08:27:34.812Z,1.7
2022-11-15T08:28:34.565Z,2.4
2022-11-15T08:29:34.339Z,1.7
2022-11-15T08:30:35.570Z,1.9
2022-11-15T08:31:34.639Z,2.4
2022-11-15T08:32:34.662Z,2.3
2022-11-15T08:33:35.558Z,2.3
2022-11-15T08:34:34.228Z,1.9
2022-11-15T08:35:34.070Z,1.9
2022-11-15T08:36:43.058Z,2.3
2022-11-15T08:37:34.602Z,2.1
2022-11-15T08:38:34.650Z,1.9
2022-11-15T08:39:34.216Z,2.6
2022-11-15T08:40:34.012Z,2.5
2022-11-15T08:41:36.129Z,2.2
2022-11-15T08:42:34.441Z,2.0
2022-11-15T08:43:34.704Z,1.7
2022-11-15T08:44:34.080Z,2.1
2022-11-15T08:45:34.574Z,2.3
2022-11-15T08:46:34.628Z,2.3
2022-11-15T08:47:34.870Z,2.3
2022-11-15T08:48:34.488Z,2.1
2022-11-15T08:49:34.104Z,2.0
2022-11-15T08:50:34.776Z,2.9
2022-11-15T08:51:34.586Z,2.0
2022-11-15T08:52:34.400Z,1.9
2022-11-15T08:53:34.541Z,2.4
2022-11-15T08:54:34.019Z,2.6
2022-11-15T08:55:37.889Z,2.2
2022-11-15T08:56:34.521Z,2.9
2022-11-15T08:57:34.359Z,2.6
2022-11-15T08:58:34.551Z,2.9
2022-11-15T08:59:34.019Z,2.3
2022-11-15T09:00:34.585Z,2.7
2022-11-15T09:01:34.572Z,2.7
2022-11-15T09:02:34.297Z,2.4
2022-11-15T09:03:34.086Z,2.1
2022-11-15T09:04:34.734Z,2.5
2022-11-15T09:05:36.114Z,2.3
2022-11-15T09:06:34.442Z,2.4
2022-11-15T09:07:34.295Z,3.0
2022-11-15T09:08:47.544Z,2.0
2022-11-15T09:09:37.678Z,1.9
2022-11-15T09:10:34.486Z,2.1
2022-11-15T09:11:34.497Z,2.8
2022-11-15T09:12:34.119Z,2.6
2022-11-15T09:13:34.324Z,2.1
2022-11-15T09:14:34.663Z,2.2
2022-11-15T09:15:34.642Z,2.7
2022-11-15T09:16:34.273Z,2.2
2022-11-15T09:17:34.180Z,2.6
2022-11-15T09:18:34.506Z,2.1
2022-11-15T09:19:34.585Z,2.0
2022-11-15T09:20:34.380Z,2.2
2022-11-15T09:21:34.205Z,2.5
2022-11-15T09:22:34.047Z,2.0
2022-11-15T09:23:34.775Z,2.6
2022-11-15T09:24:35.002Z,2.7
2022-11-15T09:25:34.373Z,2.1
2022-11-15T09:26:34.243Z,2.6
2022-11-15T09:27:33.958Z,2.8
2022-11-15T09:28:36.094Z,2.2
2022-11-15T09:29:34.436Z,2.2
2022-11-15T09:30:34.271Z,1.9
2022-11-15T09:31:34.030Z,3.0
2022-11-15T09:32:37.980Z,2.4
2022-11-15T09:33:35.323Z,1.8
2022-11-15T09:34:34.411Z,2.7
2022-11-15T09:35:34.505Z,2.2
2022-11-15T09:36:34.180Z,1.8
2022-11-15T09:37:34.679Z,1.9
2022-11-15T09:38:35.212Z,2.4
2022-11-15T09:39:34.348Z,1.8
2022-11-15T09:40:36.533Z,2.1
2022-11-15T09:41:38.829Z,2.8
2022-11-15T09:42:39.550Z,2.3
2022-11-15T09:43:45.257Z,2.6
2022-11-15T09:44:41.900Z,2.5
2022-11-15T09:45:41.762Z,2.6
2022-11-15T09:46:41.765Z,2.2
2022-11-15T09:47:39.422Z,2.2
2022-11-15T09:48:48.286Z,1.9
2022-11-15T09:49:34.304Z,2.2
2022-11-15T09:50:40.276Z,2.6
2022-11-15T09:51:39.042Z,2.3
2022-11-15T09:52:35.896Z,2.6
2022-11-15T09:54:23.842Z,2.7
2022-11-15T09:54:52.956Z,2.4
2022-11-15T09:55:44.781Z,2.3
2022-11-15T09:56:39.695Z,2.6
2022-11-15T09:57:52.696Z,2.2
2022-11-15T09:58:40.081Z,2.4
2022-11-15T09:59:41.790Z,2.5
2022-11-15T10:00:46.497Z,2.9
2022-11-15T10:01:52.765Z,2.2
2022-11-15T10:02:39.230Z,2.5
2022-11-15T10:03:34.925Z,2.3
2022-11-15T10:04:34.087Z,2.8
2022-11-15T10:05:38.018Z,3.1
2022-11-15T10:06:38.945Z,1.7
2022-11-15T10:07:39.112Z,2.2
2022-11-15T10:08:39.044Z,2.6
2022-11-15T10:09:41.280Z,2.1
2022-11-15T10:10:48.551Z,2.1
2022-11-15T10:11:37.746Z,2.0
2022-11-15T10:12:34.219Z,2.7
2022-11-15T10:13:35.571Z,3.0
2022-11-15T10:14:34.926Z,2.6
2022-11-15T10:15:35.145Z,2.0
2022-11-15T10:16:54.352Z,2.4
2022-11-15T10:17:50.767Z,2.7
2022-11-15T10:18:52.219Z,3.0
2022-11-15T10:19:39.020Z,1.7
2022-11-15T10:20:39.350Z,2.8
2022-11-15T10:21:53.855Z,2.0
2022-11-15T10:22:41.367Z,2.5
2022-11-15T10:23:33.882Z,2.5
2022-11-15T10:24:37.206Z,2.6
2022-11-15T10:25:34.346Z,3.1
2022-11-15T10:26:34.187Z,2.5
2022-11-15T10:27:34.256Z,3.4
2022-11-15T10:28:35.252Z,2.4
2022-11-15T10:29:34.521Z,2.2
2022-11-15T10:30:35.943Z,2.3
2022-11-15T10:31:34.179Z,2.9
2022-11-15T10:32:35.415Z,2.2
2022-11-15T10:33:38.641Z,2.3
2022-11-15T10:34:35.674Z,2.5
2022-11-15T10:35:34.329Z,3.5
2022-11-15T10:36:34.135Z,4.6
2022-11-15T10:37:33.882Z,3.4
2022-11-15T10:38:54.273Z,3.3
2022-11-15T10:39:34.460Z,3.4
2022-11-15T10:40:34.790Z,2.8
2022-11-15T10:41:38.773Z,4.1
2022-11-15T10:42:34.717Z,3.1
2022-11-15T10:43:34.613Z,3.3
2022-11-15T10:44:39.320Z,2.8
2022-11-15T10:45:34.398Z,2.5
2022-11-15T10:46:46.642Z,3.5
2022-11-15T10:47:39.259Z,2.9
2022-11-15T10:48:34.724Z,3.2
2022-11-15T10:49:34.958Z,3.1
2022-11-15T10:50:34.380Z,3.1
2022-11-15T10:51:38.821Z,3.3
2022-11-15T10:52:36.080Z,2.6
2022-11-15T10:53:39.272Z,2.6
2022-11-15T10:54:42.304Z,3.1
2022-11-15T10:55:34.680Z,3.4
2022-11-15T10:56:34.786Z,3.3
2022-11-15T10:57:38.060Z,3.5
2022-11-15T10:58:36.690Z,3.1
2022-11-15T10:59:39.037Z,2.5
2022-11-15T11:00:35.912Z,3.1
2022-11-15T11:01:39.647Z,3.9
2022-11-15T11:02:36.447Z,3.5
2022-11-15T11:03:35.499Z,3.0
2022-11-15T11:04:38.996Z,2.7
2022-11-15T11:05:41.292Z,3.2
2022-11-15T11:06:52.794Z,3.4
2022-11-15T11:07:35.338Z,2.8
2022-11-15T11:08:34.402Z,2.7
2022-11-15T11:09:35.262Z,3.5
2022-11-15T11:10:51.392Z,2.3
2022-11-15T11:11:47.536Z,3.1
2022-11-15T11:12:34.623Z,2.9
2022-11-15T11:13:35.648Z,3.0
2022-11-15T11:14:35.185Z,2.9
2022-11-15T11:15:41.181Z,3.2
2022-11-15T11:16:39.294Z,2.9
2022-11-15T11:17:39.632Z,2.9
2022-11-15T11:18:57.382Z,3.2
2022-11-15T11:19:50.773Z,2.6
2022-11-15T11:20:38.724Z,2.7
2022-11-15T11:21:56.843Z,2.7
2022-11-15T11:22:48.279Z,3.4
2022-11-15T11:23:39.329Z,3.7
2022-11-15T11:24:41.770Z,2.8
2022-11-15T11:25:44.792Z,2.5
2022-11-15T11:26:38.795Z,3.0
2022-11-15T11:27:48.263Z,2.8
2022-11-15T11:28:57.251Z,3.2
2022-11-15T11:29:41.767Z,2.8
2022-11-15T11:30:38.913Z,2.3
2022-11-15T11:31:47.804Z,3.4
2022-11-15T11:32:54.978Z,2.9
2022-11-15T11:33:41.787Z,3.1
2022-11-15T11:34:39.052Z,3.5
2022-11-15T11:35:56.820Z,2.6
2022-11-15T11:36:45.272Z,3.2
2022-11-15T11:37:42.293Z,2.5
2022-11-15T11:38:44.766Z,1.4
2022-11-15T11:39:47.772Z,2.2
2022-11-15T11:40:41.108Z,2.7
2022-11-15T11:41:57.285Z,3.0
2022-11-15T11:42:45.287Z,2.9
2022-11-15T11:43:39.521Z,2.7
2022-11-15T11:44:39.343Z,2.6
2022-11-15T11:45:41.278Z,2.3
2022-11-15T11:46:56.788Z,2.8
2022-11-15T11:47:39.484Z,2.7
2022-11-15T11:48:39.513Z,2.5
2022-11-15T11:49:46.459Z,2.3
2022-11-15T11:50:36.635Z,2.7
2022-11-15T11:51:38.615Z,3.0
2022-11-15T11:52:39.123Z,2.4
2022-11-15T11:53:45.311Z,2.5
2022-11-15T11:54:47.814Z,2.4
2022-11-15T11:55:42.904Z,2.8
2022-11-15T11:56:35.443Z,2.6
2022-11-15T11:57:39.623Z,3.1
2022-11-15T11:58:39.362Z,2.3
2022-11-15T11:59:46.464Z,2.2
2022-11-15T12:00:37.996Z,2.6
2022-11-15T12:01:37.507Z,1.6
2022-11-15T12:02:36.721Z,2.2
2022-11-15T12:03:39.361Z,2.4
2022-11-15T12:04:38.742Z,2.5
2022-11-15T12:05:54.758Z,3.0
2022-11-15T12:06:52.811Z,2.3
2022-11-15T12:07:35.501Z,2.5
2022-11-15T12:08:52.237Z,3.0
2022-11-15T12:09:38.077Z,2.8
2022-11-15T12:10:34.414Z,2.2
2022-11-15T12:11:42.307Z,2.8
2022-11-15T12:12:54.043Z,2.2
2022-11-15T12:13:35.163Z,2.5
2022-11-15T12:14:41.786Z,2.9
2022-11-15T12:15:41.052Z,2.8
2022-11-15T12:16:34.621Z,2.4
2022-11-15T12:17:34.737Z,2.5
2022-11-15T12:18:34.672Z,3.3
2022-11-15T12:19:35.090Z,2.4
2022-11-15T12:20:36.544Z,2.6
2022-11-15T12:21:39.252Z,2.8
2022-11-15T12:22:39.331Z,2.4
2022-11-15T12:23:44.397Z,2.9
2022-11-15T12:24:38.170Z,2.0
2022-11-15T12:25:45.273Z,2.5
2022-11-15T12:26:37.582Z,2.4
2022-11-15T12:27:38.455Z,2.5
2022-11-15T12:28:38.035Z,2.5
2022-11-15T12:29:39.591Z,2.1
2022-11-15T12:30:42.279Z,2.3
2022-11-15T12:31:39.483Z,2.0
2022-11-15T12:32:35.379Z,2.3
2022-11-15T12:33:39.434Z,2.5
2022-11-15T12:34:40.478Z,2.6
2022-11-15T12:35:36.043Z,2.3
2022-11-15T12:36:38.260Z,2.3
2022-11-15T12:37:39.024Z,2.4
2022-11-15T12:38:52.224Z,2.5
2022-11-15T12:40:03.381Z,2.3
2022-11-15T12:40:35.916Z,2.4
2022-11-15T12:41:35.697Z,2.2
2022-11-15T12:42:44.785Z,2.6
2022-11-15T12:43:37.754Z,2.9
2022-11-15T12:44:39.471Z,2.8
2022-11-15T12:45:36.268Z,2.4
2022-11-15T12:46:44.785Z,1.9
2022-11-15T12:47:34.061Z,2.3
2022-11-15T12:48:39.665Z,2.3
2022-11-15T12:49:42.293Z,2.1
2022-11-15T12:50:39.365Z,2.2
2022-11-15T12:51:47.800Z,2.1
2022-11-15T12:52:34.860Z,2.4
2022-11-15T12:53:34.829Z,2.4
2022-11-15T12:54:45.296Z,2.2
2022-11-15T12:55:34.396Z,2.5
2022-11-15T12:56:34.201Z,2.9
2022-11-15T12:57:35.952Z,2.5
2022-11-15T12:58:48.291Z,2.4
2022-11-15T12:59:53.412Z,2.0
2022-11-15T13:00:37.470Z,2.5
2022-11-15T13:01:42.352Z,2.3
2022-11-15T13:02:39.037Z,2.1
2022-11-15T13:03:34.556Z,2.7
2022-11-15T13:04:34.387Z,2.4
2022-11-15T13:05:39.089Z,2.9
2022-11-15T13:06:37.763Z,2.6
2022-11-15T13:07:39.596Z,2.6
2022-11-15T13:08:38.589Z,2.4
2022-11-15T13:09:39.104Z,2.1
2022-11-15T13:10:34.110Z,2.5
2022-11-15T13:11:47.801Z,2.2
2022-11-15T13:12:39.464Z,2.7
2022-11-15T13:13:43.768Z,2.2
2022-11-15T13:14:41.829Z,2.1
2022-11-15T13:15:47.789Z,2.5
2022-11-15T13:16:34.681Z,2.6
2022-11-15T13:17:35.710Z,2.0
2022-11-15T13:18:40.340Z,2.3
2022-11-15T13:19:35.845Z,1.6
2022-11-15T13:20:34.926Z,2.1
2022-11-15T13:21:34.706Z,2.6
2022-11-15T13:22:48.312Z,2.0
2022-11-15T13:23:34.274Z,2.5
2022-11-15T13:24:38.445Z,2.4
2022-11-15T13:25:52.750Z,1.4
2022-11-15T13:26:34.586Z,2.4
2022-11-15T13:27:34.490Z,3.2
2022-11-15T13:28:39.065Z,2.6
2022-11-15T13:29:34.905Z,1.8
2022-11-15T13:30:35.022Z,2.3
2022-11-15T13:31:40.404Z,2.5
2022-11-15T13:32:34.471Z,1.4
2022-11-15T13:33:36.192Z,2.4
2022-11-15T13:34:51.634Z,1.3
2022-11-15T13:35:37.130Z,1.9
2022-11-15T13:36:34.449Z,2.8
2022-11-15T13:37:34.306Z,2.7
2022-11-15T13:38:36.646Z,2.5
2022-11-15T13:39:34.875Z,2.1
2022-11-15T13:40:35.741Z,1.2
2022-11-15T13:41:35.493Z,1.5
2022-11-15T13:42:34.272Z,2.4
2022-11-15T13:43:36.910Z,2.2
2022-11-15T13:44:34.807Z,2.0
2022-11-15T13:45:34.589Z,2.2
2022-11-15T13:46:34.387Z,2.8